Time;durP1;ratioP1;P1;durP2;ratioP2;P2;SDS_P1;SDS_P2;PMS_P1;PMS_P2;Temp;Humidity;BMP_temperature;BMP_pressure;BME280_temperature;BME280_humidity;BME280_pressure;Samples;Min_cycle;Max_cycle;Signal;HPM_P1;HPM_P2
2022/01/10 00:01:37;;;;;;;12.10;3.63;;;14.90;73.10;;;;;;4124523;28;20466;-63
2022/01/10 00:04:00;;;;;;;10.02;3.72;;;14.90;73.20;;;;;;4093784;28;20559;-61
2022/01/10 00:06:25;;;;;;;18.15;3.88;;;14.90;73.40;;;;;;4094186;28;20102;-63
2022/01/10 00:08:48;;;;;;;14.13;3.72;;;14.90;73.20;;;;;;4100695;28;20109;-63
2022/01/10 00:11:11;;;;;;;13.40;3.83;;;14.90;73.70;;;;;;4111281;28;20047;-64
2022/01/10 00:13:33;;;;;;;12.60;3.88;;;14.90;73.70;;;;;;4126000;28;20054;-63
2022/01/10 00:15:56;;;;;;;16.27;4.03;;;14.80;73.50;;;;;;4128135;28;20050;-63
2022/01/10 00:18:20;;;;;;;15.15;3.67;;;14.80;73.60;;;;;;4128094;28;20100;-63
2022/01/10 00:20:43;;;;;;;12.85;3.25;;;14.80;73.60;;;;;;4127392;28;20104;-69
2022/01/10 00:23:08;;;;;;;18.80;3.90;;;14.80;73.60;;;;;;4113111;28;20055;-69
2022/01/10 00:25:31;;;;;;;16.73;4.10;;;14.80;73.70;;;;;;4112173;28;20438;-70
2022/01/10 00:27:54;;;;;;;15.20;4.00;;;14.70;73.60;;;;;;4112190;28;20475;-69
2022/01/10 00:30:18;;;;;;;17.17;4.05;;;14.70;73.70;;;;;;4110747;28;20101;-69
2022/01/10 00:32:44;;;;;;;15.32;4.00;;;14.70;73.60;;;;;;4121252;28;20454;-69
2022/01/10 00:35:08;;;;;;;15.70;3.72;;;14.70;73.70;;;;;;4128255;28;20100;-69
2022/01/10 00:37:31;;;;;;;14.32;3.85;;;14.70;74.00;;;;;;4117987;28;20882;-69
2022/01/10 00:39:55;;;;;;;14.20;3.00;;;14.70;74.00;;;;;;4110908;28;20046;-69
2022/01/10 00:42:19;;;;;;;20.48;3.90;;;14.70;74.00;;;;;;4110400;28;20514;-69
2022/01/10 00:44:49;;;;;;;10.55;3.38;;;14.70;74.20;;;;;;4112314;28;20054;-69
2022/01/10 00:47:12;;;;;;;12.13;4.23;;;14.70;74.10;;;;;;4117413;28;20046;-69
2022/01/10 00:49:35;;;;;;;12.05;3.38;;;14.60;74.30;;;;;;4128101;28;20457;-69
2022/01/10 00:51:58;;;;;;;13.07;3.92;;;14.60;74.20;;;;;;4128009;28;20058;-69
2022/01/10 00:54:22;;;;;;;12.52;3.40;;;14.60;74.20;;;;;;4128089;28;20109;-69
2022/01/10 00:56:46;;;;;;;12.48;3.50;;;14.60;74.30;;;;;;4128023;28;20126;-69
2022/01/10 00:59:09;;;;;;;12.85;3.10;;;14.60;74.20;;;;;;4115791;28;20054;-69
2022/01/10 01:01:32;;;;;;;13.57;3.78;;;14.60;74.40;;;;;;4111789;28;20097;-68
2022/01/10 01:03:56;;;;;;;15.02;4.07;;;14.60;74.40;;;;;;4111825;28;20108;-69
2022/01/10 01:06:19;;;;;;;11.88;3.00;;;14.50;75.30;;;;;;4112031;28;20105;-69
2022/01/10 01:08:43;;;;;;;12.82;3.38;;;14.50;74.40;;;;;;4111636;28;20047;-69
2022/01/10 01:13:54;;;;;;;13.73;3.97;;;14.50;74.50;;;;;;4120091;28;20049;-68
2022/01/10 01:16:18;;;;;;;10.38;2.55;;;14.50;74.70;;;;;;4125221;28;21782;-68
2022/01/10 01:24:10;;;;;;;11.65;3.05;;;14.40;75.20;;;;;;4074885;28;20094;-68
2022/01/10 01:26:36;;;;;;;17.40;3.28;;;14.40;75.00;;;;;;4126265;28;20109;-68
2022/01/10 01:29:01;;;;;;;17.42;3.55;;;14.40;74.80;;;;;;4125877;28;20108;-67
2022/01/10 01:31:24;;;;;;;15.43;3.40;;;14.40;74.70;;;;;;4125940;28;20042;-68
2022/01/10 01:33:49;;;;;;;10.80;2.92;;;14.40;74.90;;;;;;4095518;28;20051;-67
2022/01/10 01:36:12;;;;;;;12.77;3.25;;;14.40;74.90;;;;;;4116707;28;20050;-68
2022/01/10 01:38:35;;;;;;;11.25;3.92;;;14.40;75.10;;;;;;4126407;28;20046;-68
2022/01/10 01:41:12;;;;;;;12.30;3.35;;;14.40;76.00;;;;;;4125542;28;20058;-68
2022/01/10 01:43:35;;;;;;;14.48;3.30;;;14.40;75.10;;;;;;4125365;28;20050;-68
2022/01/10 01:46:00;;;;;;;14.02;3.55;;;14.40;75.30;;;;;;4127112;28;20081;-68
2022/01/10 01:48:23;;;;;;;12.30;3.08;;;14.40;75.10;;;;;;4113905;28;20043;-68
2022/01/10 01:50:47;;;;;;;12.80;2.72;;;14.40;75.20;;;;;;4114133;28;20042;-62
2022/01/10 01:53:10;;;;;;;10.63;3.28;;;14.30;75.20;;;;;;4109753;28;20070;-62
2022/01/10 01:55:35;;;;;;;10.13;2.78;;;14.30;75.20;;;;;;4123132;28;20372;-62
2022/01/10 01:57:58;;;;;;;12.68;3.30;;;14.30;75.30;;;;;;4125226;28;20054;-62
2022/01/10 02:00:22;;;;;;;14.18;3.38;;;14.30;75.30;;;;;;4140113;28;20057;-61
2022/01/10 02:02:50;;;;;;;11.45;2.85;;;14.30;75.30;;;;;;4125542;28;20050;-62
2022/01/10 02:05:13;;;;;;;11.73;3.35;;;14.30;75.20;;;;;;4122899;28;20053;-62
2022/01/10 02:07:36;;;;;;;8.98;3.38;;;14.30;75.30;;;;;;4109352;28;20105;-62
2022/01/10 02:09:59;;;;;;;10.07;3.42;;;14.30;75.10;;;;;;4110873;28;20054;-62
2022/01/10 02:12:23;;;;;;;10.68;3.65;;;14.30;75.30;;;;;;4123350;28;20054;-62
2022/01/10 02:14:47;;;;;;;14.85;3.90;;;14.20;75.40;;;;;;4110952;28;20050;-62
2022/01/10 02:17:13;;;;;;;14.95;3.70;;;14.20;75.50;;;;;;4109387;28;20098;-62
2022/01/10 02:19:55;;;;;;;18.92;4.10;;;14.20;75.50;;;;;;4106663;28;20046;-68
2022/01/10 02:22:19;;;;;;;11.38;3.25;;;14.20;75.30;;;;;;4092949;28;20047;-69
2022/01/10 02:24:56;;;;;;;11.98;3.20;;;14.20;75.70;;;;;;4108430;28;21144;-68
2022/01/10 02:27:22;;;;;;;11.68;3.33;;;14.20;75.70;;;;;;4122812;28;20042;-68
2022/01/10 02:29:45;;;;;;;7.47;3.00;;;14.10;75.60;;;;;;4109033;28;20050;-68
2022/01/10 02:32:08;;;;;;;11.88;3.28;;;14.20;75.90;;;;;;4110437;28;21518;-68
2022/01/10 02:34:31;;;;;;;10.27;3.38;;;14.20;75.90;;;;;;4108789;28;20106;-68
2022/01/10 02:36:58;;;;;;;10.18;2.97;;;14.10;75.80;;;;;;4108883;28;20565;-68
2022/01/10 02:39:22;;;;;;;14.18;3.30;;;14.10;75.70;;;;;;4108993;28;20051;-69
2022/01/10 02:41:45;;;;;;;13.80;3.17;;;14.10;75.70;;;;;;4124825;28;20104;-69
2022/01/10 02:44:12;;;;;;;9.30;2.95;;;14.10;75.60;;;;;;4124978;28;20050;-68
2022/01/10 02:46:37;;;;;;;11.05;3.67;;;14.10;75.50;;;;;;4110872;28;20058;-67
2022/01/10 02:49:13;;;;;;;13.68;3.13;;;14.10;75.80;;;;;;4124362;28;20054;-69
2022/01/10 02:51:38;;;;;;;13.63;3.45;;;14.10;75.50;;;;;;4110011;28;20055;-69
2022/01/10 02:54:02;;;;;;;15.73;3.47;;;14.10;76.20;;;;;;4108961;28;20443;-68
2022/01/10 02:56:25;;;;;;;8.48;2.88;;;14.10;76.80;;;;;;4110633;28;20086;-68
2022/01/10 02:58:48;;;;;;;11.93;3.28;;;14.30;76.70;;;;;;4118409;28;20050;-68
2022/01/10 03:01:11;;;;;;;14.15;3.42;;;14.40;76.50;;;;;;4093019;28;20054;-68
2022/01/10 03:03:36;;;;;;;14.20;3.75;;;14.50;75.90;;;;;;4092913;28;20059;-68
2022/01/10 03:05:59;;;;;;;14.30;3.38;;;14.60;75.50;;;;;;4108163;28;20054;-68
2022/01/10 03:08:22;;;;;;;12.90;3.40;;;14.60;75.00;;;;;;4121636;28;20058;-68
2022/01/10 03:10:47;;;;;;;13.77;3.40;;;14.70;74.60;;;;;;4124893;28;20478;-68
2022/01/10 03:13:10;;;;;;;12.95;3.80;;;14.70;74.20;;;;;;4124657;28;20054;-69
2022/01/10 03:15:33;;;;;;;14.60;3.97;;;14.70;74.20;;;;;;4121937;28;20058;-69
2022/01/10 03:17:56;;;;;;;13.02;4.10;;;14.80;74.20;;;;;;4117573;28;20537;-69
2022/01/10 03:20:23;;;;;;;16.23;3.70;;;14.80;74.00;;;;;;4125013;28;20042;-69
2022/01/10 03:22:48;;;;;;;13.70;3.33;;;14.80;74.80;;;;;;4124874;28;20120;-69
2022/01/10 03:25:11;;;;;;;8.63;3.08;;;14.70;73.70;;;;;;4127305;28;20097;-69
2022/01/10 03:27:40;;;;;;;16.05;3.80;;;14.70;73.80;;;;;;4116276;28;20453;-69
2022/01/10 03:30:04;;;;;;;14.95;4.63;;;14.70;74.10;;;;;;4138571;28;20572;-69
2022/01/10 03:32:27;;;;;;;12.57;4.10;;;14.70;74.20;;;;;;4121702;28;20054;-69
2022/01/10 03:34:58;;;;;;;10.90;3.13;;;14.70;74.10;;;;;;4108268;28;20086;-69
2022/01/10 03:37:21;;;;;;;8.27;3.47;;;14.80;74.10;;;;;;4114982;28;20131;-69
2022/01/10 03:39:45;;;;;;;11.63;3.35;;;14.80;74.00;;;;;;4124659;28;20475;-69
2022/01/10 03:42:08;;;;;;;12.18;3.75;;;14.90;73.90;;;;;;4124357;28;20100;-69
2022/01/10 03:44:32;;;;;;;11.18;4.20;;;14.90;73.50;;;;;;4117883;28;20054;-69
2022/01/10 03:46:57;;;;;;;13.07;4.65;;;14.90;73.50;;;;;;4111397;28;20051;-69
2022/01/10 03:49:21;;;;;;;12.05;3.40;;;14.90;73.40;;;;;;4132347;28;20120;-69
2022/01/10 03:51:44;;;;;;;11.43;3.83;;;14.90;73.40;;;;;;4128979;28;20105;-69
2022/01/10 03:54:07;;;;;;;13.82;4.03;;;14.90;73.40;;;;;;4129140;28;20050;-69
2022/01/10 03:56:31;;;;;;;6.35;3.20;;;14.90;73.30;;;;;;4127701;28;20061;-68
2022/01/10 03:58:56;;;;;;;10.95;3.28;;;14.80;73.20;;;;;;4117815;28;20499;-69
2022/01/10 04:01:21;;;;;;;10.82;3.67;;;14.80;73.30;;;;;;4118401;28;20120;-68
2022/01/10 04:03:49;;;;;;;11.57;3.55;;;14.80;73.10;;;;;;4124285;28;20081;-69
2022/01/10 04:06:13;;;;;;;12.40;3.85;;;14.80;73.20;;;;;;4112610;28;20059;-68
2022/01/10 04:08:36;;;;;;;13.48;3.70;;;14.70;73.50;;;;;;4111105;28;20097;-69
2022/01/10 04:10:59;;;;;;;17.35;4.40;;;14.80;73.70;;;;;;4124314;28;20058;-62
2022/01/10 04:13:23;;;;;;;18.52;5.65;;;14.80;73.60;;;;;;4117889;28;20050;-62
2022/01/10 04:15:48;;;;;;;15.43;5.22;;;14.90;73.60;;;;;;4114248;28;20101;-62
2022/01/10 04:18:12;;;;;;;14.55;4.13;;;15.00;73.40;;;;;;4124689;28;20046;-62
2022/01/10 04:20:36;;;;;;;10.20;4.38;;;15.00;72.80;;;;;;4124997;28;20463;-62
2022/01/10 04:22:59;;;;;;;11.98;5.18;;;15.10;72.50;;;;;;4110830;28;20051;-62
2022/01/10 04:25:22;;;;;;;11.77;4.63;;;15.10;72.10;;;;;;4118382;28;20123;-62
2022/01/10 04:27:46;;;;;;;8.82;4.38;;;15.20;72.00;;;;;;4126997;28;20047;-62
2022/01/10 04:30:16;;;;;;;17.15;4.95;;;15.20;71.70;;;;;;4127331;28;20565;-62
2022/01/10 04:32:39;;;;;;;18.35;4.95;;;15.20;71.80;;;;;;4126947;28;20445;-62
2022/01/10 04:35:08;;;;;;;10.77;5.07;;;15.20;71.90;;;;;;4126883;28;20081;-61
2022/01/10 04:37:30;;;;;;;16.98;5.57;;;15.20;72.10;;;;;;4121446;28;20062;-62
2022/01/10 04:39:54;;;;;;;12.60;5.07;;;15.20;71.80;;;;;;4112499;28;20046;-62
2022/01/10 04:42:17;;;;;;;11.48;5.22;;;15.20;71.60;;;;;;4110858;28;20399;-62
2022/01/10 04:44:41;;;;;;;16.00;5.60;;;15.20;71.40;;;;;;4110645;28;20046;-62
2022/01/10 04:47:04;;;;;;;13.57;5.88;;;15.20;71.40;;;;;;4110504;28;20078;-62
2022/01/10 04:49:28;;;;;;;15.07;5.93;;;15.20;71.50;;;;;;4115216;28;20050;-62
2022/01/10 04:51:52;;;;;;;13.50;5.03;;;15.30;71.70;;;;;;4126691;28;20113;-63
2022/01/10 04:54:15;;;;;;;12.63;6.13;;;15.30;71.20;;;;;;4140186;28;20058;-62
2022/01/10 04:56:38;;;;;;;19.25;6.55;;;15.40;70.90;;;;;;4126324;28;20104;-62
2022/01/10 04:59:01;;;;;;;11.95;5.22;;;15.40;70.70;;;;;;4094563;28;20050;-63
2022/01/10 05:01:25;;;;;;;14.98;5.50;;;15.40;70.80;;;;;;4102773;28;20510;-63
2022/01/10 05:03:51;;;;;;;14.70;6.25;;;15.50;70.50;;;;;;4114981;28;20058;-62
2022/01/10 05:06:15;;;;;;;16.90;6.15;;;15.50;70.40;;;;;;4111789;28;20558;-62
2022/01/10 05:08:40;;;;;;;13.57;6.70;;;15.40;70.50;;;;;;4110593;28;20113;-62
2022/01/10 05:11:07;;;;;;;12.88;6.30;;;15.40;70.30;;;;;;4137656;28;20100;-62
2022/01/10 05:13:30;;;;;;;21.80;6.05;;;15.30;70.60;;;;;;4125348;28;20054;-62
2022/01/10 05:15:53;;;;;;;15.55;6.43;;;15.30;70.70;;;;;;4123073;28;20051;-62
2022/01/10 05:18:18;;;;;;;16.80;6.72;;;15.20;71.00;;;;;;4110268;28;20050;-62
2022/01/10 05:20:41;;;;;;;15.77;6.63;;;15.20;71.20;;;;;;4139480;28;20474;-62
2022/01/10 05:23:05;;;;;;;16.63;6.38;;;15.20;71.40;;;;;;4127864;28;20049;-62
2022/01/10 05:25:29;;;;;;;16.65;7.13;;;15.20;71.20;;;;;;4127315;28;20050;-62
2022/01/10 05:27:53;;;;;;;15.25;6.30;;;15.30;71.10;;;;;;4126276;28;20062;-62
2022/01/10 05:30:16;;;;;;;23.83;7.10;;;15.30;71.30;;;;;;4110276;28;20054;-62
2022/01/10 05:32:40;;;;;;;14.50;6.90;;;15.30;71.00;;;;;;4107831;28;20055;-62
2022/01/10 05:35:22;;;;;;;17.92;6.75;;;15.40;70.70;;;;;;4109504;28;20439;-62
2022/01/10 05:37:45;;;;;;;17.33;7.75;;;15.40;70.50;;;;;;4111615;28;20050;-62
2022/01/10 05:40:09;;;;;;;16.05;6.32;;;15.40;70.60;;;;;;4124692;28;20050;-62
2022/01/10 05:42:33;;;;;;;14.10;6.60;;;15.50;70.50;;;;;;4125988;28;20050;-62
2022/01/10 05:44:57;;;;;;;14.68;6.65;;;15.60;70.00;;;;;;4125912;28;20050;-62
2022/01/10 05:47:20;;;;;;;14.50;6.68;;;15.60;69.60;;;;;;4120874;28;20372;-62
2022/01/10 05:49:47;;;;;;;15.90;7.43;;;15.70;69.30;;;;;;4123213;28;20105;-62
2022/01/10 05:52:15;;;;;;;13.20;7.13;;;15.70;69.10;;;;;;4120844;28;20093;-62
2022/01/10 05:54:43;;;;;;;13.73;7.18;;;15.80;69.10;;;;;;4125280;28;20050;-62
2022/01/10 05:57:07;;;;;;;15.52;7.20;;;15.80;69.00;;;;;;4124976;28;20042;-62
2022/01/10 05:59:36;;;;;;;18.65;7.05;;;15.70;69.00;;;;;;4138836;28;20080;-62
2022/01/10 06:02:00;;;;;;;16.63;6.70;;;15.70;69.00;;;;;;4125350;28;20054;-62
2022/01/10 06:04:25;;;;;;;20.45;7.25;;;15.70;69.20;;;;;;4110225;28;20043;-62
2022/01/10 06:06:49;;;;;;;15.75;6.75;;;15.70;69.30;;;;;;4110906;28;20043;-62
2022/01/10 06:09:12;;;;;;;12.77;7.05;;;15.70;69.20;;;;;;4109030;28;20046;-62
2022/01/10 06:11:36;;;;;;;15.00;7.32;;;15.60;69.10;;;;;;4122789;28;20042;-62
2022/01/10 06:14:04;;;;;;;13.65;7.25;;;15.60;69.20;;;;;;4109111;28;20046;-62
2022/01/10 06:16:29;;;;;;;17.70;7.55;;;15.60;69.50;;;;;;4138037;28;20049;-62
2022/01/10 06:18:52;;;;;;;14.20;7.30;;;15.50;69.70;;;;;;4125246;28;20062;-64
2022/01/10 06:21:19;;;;;;;21.08;7.68;;;15.50;69.80;;;;;;4116624;28;20392;-62
2022/01/10 06:23:42;;;;;;;13.90;7.72;;;15.50;69.60;;;;;;4123205;28;20478;-62
2022/01/10 06:26:06;;;;;;;17.17;7.53;;;15.50;69.60;;;;;;4109529;28;20047;-61
2022/01/10 06:28:29;;;;;;;27.23;8.70;;;15.50;69.60;;;;;;4136983;28;20053;-62
2022/01/10 06:30:53;;;;;;;15.02;8.25;;;15.50;69.80;;;;;;4125493;28;20038;-62
2022/01/10 06:33:20;;;;;;;15.73;7.32;;;15.60;69.80;;;;;;4139016;28;20454;-61
2022/01/10 06:35:42;;;;;;;15.35;7.30;;;15.60;69.30;;;;;;4124798;28;20073;-62
2022/01/10 06:38:06;;;;;;;11.60;7.50;;;15.70;70.00;;;;;;4117989;28;20054;-62
2022/01/10 06:40:32;;;;;;;14.57;7.80;;;15.70;68.90;;;;;;4123232;28;20097;-62
2022/01/10 06:42:55;;;;;;;15.40;7.57;;;15.70;68.70;;;;;;4124612;28;20100;-61
2022/01/10 06:45:21;;;;;;;15.65;8.35;;;15.70;68.80;;;;;;4124926;28;20057;-61
2022/01/10 06:47:44;;;;;;;13.23;7.45;;;15.70;68.70;;;;;;4124978;28;20136;-61
2022/01/10 06:50:10;;;;;;;15.82;7.78;;;15.70;68.60;;;;;;4124562;28;20108;-62
2022/01/10 06:52:38;;;;;;;15.05;8.10;;;15.70;68.50;;;;;;4108893;28;20053;-62
2022/01/10 06:55:01;;;;;;;15.18;7.78;;;15.70;68.60;;;;;;4109865;28;20113;-62
2022/01/10 06:57:24;;;;;;;16.75;8.40;;;15.60;68.60;;;;;;4109993;28;20105;-62
2022/01/10 06:59:48;;;;;;;19.58;8.38;;;15.60;68.50;;;;;;4108693;28;20078;-62
2022/01/10 07:02:13;;;;;;;15.73;8.05;;;15.50;68.40;;;;;;4108567;28;20055;-62
2022/01/10 07:04:36;;;;;;;16.85;9.70;;;15.50;69.00;;;;;;4123804;28;20081;-61
2022/01/10 07:07:02;;;;;;;12.63;8.10;;;15.40;69.30;;;;;;4112295;28;20046;-61
2022/01/10 07:09:28;;;;;;;16.63;8.40;;;15.40;69.60;;;;;;4120217;28;20648;-62
2022/01/10 07:11:56;;;;;;;15.40;8.55;;;15.40;69.80;;;;;;4106090;28;20102;-62
2022/01/10 07:14:19;;;;;;;15.68;8.55;;;15.50;70.00;;;;;;4106591;28;20059;-63
2022/01/10 07:16:48;;;;;;;17.00;8.90;;;15.50;70.70;;;;;;4123545;28;20089;-62
2022/01/10 07:19:12;;;;;;;16.98;8.90;;;15.50;70.00;;;;;;4106755;28;20101;-62
2022/01/10 07:21:37;;;;;;;16.17;8.68;;;15.60;69.70;;;;;;4111916;28;20129;-62
2022/01/10 07:24:02;;;;;;;15.13;8.80;;;15.60;68.90;;;;;;4134619;28;20084;-63
2022/01/10 07:26:25;;;;;;;17.73;10.05;;;15.70;68.50;;;;;;4099880;28;20051;-63
2022/01/10 07:28:49;;;;;;;17.38;10.70;;;15.60;68.50;;;;;;4113048;28;20047;-62
2022/01/10 07:31:12;;;;;;;16.42;9.90;;;15.70;68.60;;;;;;4113133;28;20491;-62
2022/01/10 07:33:36;;;;;;;15.75;9.95;;;15.70;68.20;;;;;;4112891;28;20047;-62
2022/01/10 07:35:58;;;;;;;17.75;10.05;;;15.70;68.30;;;;;;4107966;28;20055;-62
2022/01/10 07:38:23;;;;;;;16.15;9.52;;;15.70;68.10;;;;;;4113476;28;20055;-62
2022/01/10 07:40:48;;;;;;;18.65;10.77;;;15.60;68.30;;;;;;4124870;28;20055;-62
2022/01/10 07:43:11;;;;;;;16.00;9.82;;;15.60;68.50;;;;;;4112423;28;20117;-62
2022/01/10 07:45:46;;;;;;;15.75;9.63;;;15.50;68.70;;;;;;4124377;28;20047;-62
2022/01/10 07:48:09;;;;;;;18.92;10.43;;;15.50;69.00;;;;;;4112382;28;20491;-62
2022/01/10 07:50:32;;;;;;;21.20;10.25;;;15.40;69.30;;;;;;4110944;28;20097;-62
2022/01/10 07:52:56;;;;;;;19.63;10.48;;;15.40;69.50;;;;;;4111068;28;20047;-62
2022/01/10 07:55:19;;;;;;;19.33;10.68;;;15.50;69.50;;;;;;4109891;28;20054;-62
2022/01/10 07:57:45;;;;;;;18.88;10.52;;;15.50;69.30;;;;;;4110708;28;20133;-62
2022/01/10 08:00:10;;;;;;;20.30;11.63;;;15.50;69.10;;;;;;4110661;28;20058;-63
2022/01/10 08:02:35;;;;;;;18.65;10.13;;;15.50;69.30;;;;;;4125142;28;20050;-62
2022/01/10 08:04:59;;;;;;;14.18;10.52;;;15.50;69.20;;;;;;4110924;28;20042;-62
2022/01/10 08:07:22;;;;;;;21.95;11.77;;;15.40;69.20;;;;;;4110591;28;20356;-62
2022/01/10 08:09:45;;;;;;;20.00;11.60;;;15.40;69.30;;;;;;4123813;28;20558;-62
2022/01/10 08:12:10;;;;;;;22.05;11.82;;;15.40;69.40;;;;;;4124352;28;20377;-64
2022/01/10 08:14:35;;;;;;;23.05;12.18;;;15.50;69.30;;;;;;4110628;28;20058;-62
2022/01/10 08:17:00;;;;;;;18.17;11.18;;;15.50;68.90;;;;;;4115516;28;20507;-63
2022/01/10 08:19:24;;;;;;;19.35;11.13;;;15.50;68.90;;;;;;4126335;28;20077;-63
2022/01/10 08:21:46;;;;;;;22.73;10.48;;;15.50;69.10;;;;;;4126024;28;20058;-62
2022/01/10 08:24:10;;;;;;;18.60;10.73;;;15.50;69.10;;;;;;4122342;28;20112;-63
2022/01/10 08:26:36;;;;;;;19.90;11.48;;;15.60;68.80;;;;;;4109829;28;20432;-63
2022/01/10 08:28:59;;;;;;;21.65;11.20;;;15.60;68.60;;;;;;4110623;28;20089;-62
2022/01/10 08:31:24;;;;;;;20.02;11.93;;;15.60;68.50;;;;;;4109976;28;20074;-62
2022/01/10 08:33:48;;;;;;;18.65;11.65;;;15.60;68.70;;;;;;4110468;28;20059;-63
2022/01/10 08:36:11;;;;;;;18.88;11.02;;;15.50;68.70;;;;;;4106515;28;20515;-64
2022/01/10 08:38:34;;;;;;;18.25;11.90;;;15.50;68.80;;;;;;4110857;28;20043;-63
2022/01/10 08:40:57;;;;;;;20.17;11.32;;;15.50;68.70;;;;;;4110713;28;20059;-63
2022/01/10 08:43:20;;;;;;;17.40;10.23;;;15.50;68.90;;;;;;4109943;28;20118;-63
2022/01/10 08:45:44;;;;;;;18.17;10.65;;;15.50;68.90;;;;;;4109713;28;20062;-64
2022/01/10 08:48:09;;;;;;;20.00;11.07;;;15.50;68.90;;;;;;4111447;28;20443;-62
2022/01/10 08:50:35;;;;;;;16.00;11.50;;;15.50;68.90;;;;;;4112428;28;20050;-63
2022/01/10 08:52:58;;;;;;;22.55;11.63;;;15.50;69.10;;;;;;4109565;28;20455;-63
2022/01/10 08:55:22;;;;;;;21.38;11.15;;;15.50;70.00;;;;;;4109449;28;20109;-63
2022/01/10 08:57:45;;;;;;;18.92;10.80;;;15.40;69.10;;;;;;4110346;28;20054;-63
2022/01/10 09:00:09;;;;;;;20.92;11.18;;;15.40;69.40;;;;;;4111886;28;20080;-63
2022/01/10 09:02:33;;;;;;;22.67;11.35;;;15.40;69.30;;;;;;4110063;28;20468;-63
2022/01/10 09:04:57;;;;;;;21.10;12.13;;;15.50;69.30;;;;;;4110701;28;20054;-63
2022/01/10 09:07:22;;;;;;;19.00;11.18;;;15.50;69.20;;;;;;4110989;28;20059;-63
2022/01/10 09:09:45;;;;;;;15.85;10.65;;;15.50;69.10;;;;;;4115068;28;20602;-63
2022/01/10 09:12:10;;;;;;;20.30;11.32;;;15.50;69.00;;;;;;4108975;28;20054;-62
2022/01/10 09:14:33;;;;;;;25.33;11.43;;;15.40;69.10;;;;;;4109530;28;20117;-63
2022/01/10 09:16:56;;;;;;;17.63;10.13;;;15.40;69.50;;;;;;4113073;28;20046;-63
2022/01/10 09:19:19;;;;;;;16.38;10.40;;;15.50;69.30;;;;;;4109334;28;20077;-63
2022/01/10 09:21:44;;;;;;;16.73;10.13;;;15.50;69.10;;;;;;4108841;28;20086;-62
2022/01/10 09:24:07;;;;;;;18.88;10.77;;;15.50;69.80;;;;;;4109556;28;20054;-62
2022/01/10 09:26:31;;;;;;;19.50;10.75;;;15.50;69.70;;;;;;4109262;28;20120;-62
2022/01/10 09:28:54;;;;;;;16.08;10.85;;;15.60;68.80;;;;;;4109469;28;20454;-62
2022/01/10 09:31:17;;;;;;;18.00;10.65;;;15.60;68.70;;;;;;4121964;28;20054;-63
2022/01/10 09:33:41;;;;;;;18.02;11.00;;;15.60;69.50;;;;;;4109049;28;20499;-62
2022/01/10 09:36:05;;;;;;;17.08;10.68;;;15.60;68.50;;;;;;4118071;28;20062;-63
2022/01/10 09:38:29;;;;;;;16.23;10.30;;;15.60;68.60;;;;;;4109541;28;20970;-63
2022/01/10 09:40:52;;;;;;;16.80;10.52;;;15.50;68.60;;;;;;4109450;28;20707;-64
2022/01/10 09:43:16;;;;;;;17.33;10.93;;;15.50;68.90;;;;;;4108127;28;20063;-62
2022/01/10 09:45:40;;;;;;;20.75;11.05;;;15.50;68.70;;;;;;4109339;28;20094;-63
2022/01/10 09:48:03;;;;;;;19.73;10.63;;;15.50;69.10;;;;;;4116275;28;20490;-64
2022/01/10 09:50:27;;;;;;;15.77;11.10;;;15.50;69.20;;;;;;4108428;28;20093;-62
2022/01/10 09:52:51;;;;;;;16.75;11.35;;;15.60;68.80;;;;;;4108713;28;20573;-61
2022/01/10 09:55:17;;;;;;;18.52;10.82;;;15.70;68.60;;;;;;4108300;28;20065;-61
2022/01/10 09:57:39;;;;;;;23.23;10.73;;;15.80;68.20;;;;;;4107894;28;20046;-61
2022/01/10 10:00:04;;;;;;;19.63;11.32;;;15.80;67.90;;;;;;4108257;28;20090;-62
2022/01/10 10:02:34;;;;;;;18.45;11.60;;;15.80;67.80;;;;;;4108119;28;20054;-61
2022/01/10 10:04:57;;;;;;;19.42;11.05;;;15.80;67.80;;;;;;4108284;28;20156;-61
2022/01/10 10:07:24;;;;;;;22.50;12.07;;;15.70;68.10;;;;;;4120186;28;20445;-60
2022/01/10 10:09:47;;;;;;;20.95;12.40;;;15.70;68.50;;;;;;4116224;28;20062;-63
2022/01/10 10:12:11;;;;;;;24.90;12.38;;;15.60;68.40;;;;;;4109909;28;20472;-66
2022/01/10 10:14:35;;;;;;;16.92;11.30;;;15.50;68.70;;;;;;4108132;28;20105;-68
2022/01/10 10:17:07;;;;;;;22.20;12.23;;;15.50;70.00;;;;;;4108498;28;20054;-69
2022/01/10 10:19:30;;;;;;;20.00;11.85;;;15.40;69.30;;;;;;4108123;28;20760;-68
2022/01/10 10:21:55;;;;;;;21.38;12.18;;;15.40;69.60;;;;;;4110144;28;20054;-68
2022/01/10 10:24:19;;;;;;;18.92;11.45;;;15.30;69.90;;;;;;4123645;28;20108;-68
2022/01/10 10:26:42;;;;;;;21.15;12.80;;;15.20;70.20;;;;;;4115000;28;20055;-69
2022/01/10 10:29:07;;;;;;;17.20;11.88;;;15.20;70.50;;;;;;4108729;28;20114;-69
2022/01/10 10:31:32;;;;;;;21.00;12.05;;;15.20;70.30;;;;;;4108285;28;20046;-68
2022/01/10 10:33:57;;;;;;;18.40;12.25;;;15.20;70.50;;;;;;4108408;28;20051;-68
2022/01/10 10:36:20;;;;;;;16.67;12.02;;;15.20;70.60;;;;;;4108191;28;20459;-68
2022/01/10 10:38:45;;;;;;;19.90;12.77;;;15.20;70.60;;;;;;4108778;28;20166;-69
2022/01/10 10:41:08;;;;;;;23.48;13.60;;;15.20;70.60;;;;;;4108183;28;20376;-68
2022/01/10 10:43:32;;;;;;;22.58;13.25;;;15.30;70.70;;;;;;4108446;28;20075;-68
2022/01/10 10:46:00;;;;;;;18.90;12.43;;;15.30;70.60;;;;;;4109074;28;20124;-69
2022/01/10 10:48:25;;;;;;;20.80;12.80;;;15.40;70.40;;;;;;4116860;28;20054;-68
2022/01/10 10:50:48;;;;;;;23.33;12.95;;;15.50;70.10;;;;;;4110169;28;20055;-68
2022/01/10 10:53:13;;;;;;;19.98;11.85;;;15.60;69.60;;;;;;4114382;28;20050;-69
2022/01/10 10:55:39;;;;;;;19.45;11.45;;;15.60;69.30;;;;;;4113249;28;20044;-69
2022/01/10 10:58:02;;;;;;;23.77;12.40;;;15.60;69.30;;;;;;4108468;28;20054;-68
2022/01/10 11:00:26;;;;;;;20.00;12.93;;;15.60;69.40;;;;;;4108435;28;20507;-68
2022/01/10 11:02:52;;;;;;;26.05;12.77;;;15.60;69.40;;;;;;4108599;28;20070;-68
2022/01/10 11:05:15;;;;;;;20.55;12.57;;;15.50;69.50;;;;;;4109024;28;20059;-69
2022/01/10 11:07:38;;;;;;;22.05;13.35;;;15.50;69.80;;;;;;4107893;28;20042;-68
2022/01/10 11:10:10;;;;;;;22.20;13.10;;;15.40;69.90;;;;;;4107830;28;20109;-67
2022/01/10 11:12:35;;;;;;;19.58;12.38;;;15.40;70.20;;;;;;4116171;28;20112;-67
2022/01/10 11:15:00;;;;;;;19.45;13.32;;;15.30;70.50;;;;;;4108877;28;20109;-68
2022/01/10 11:17:24;;;;;;;20.08;11.93;;;15.30;70.70;;;;;;4117673;28;20046;-68
2022/01/10 11:20:08;;;;;;;19.33;12.10;;;15.20;71.00;;;;;;4112849;28;20050;-68
2022/01/10 11:22:31;;;;;;;19.40;12.77;;;15.10;71.10;;;;;;4108979;28;20055;-68
2022/01/10 11:24:55;;;;;;;25.98;12.63;;;15.10;71.70;;;;;;4116795;28;20109;-64
2022/01/10 11:27:44;;;;;;;19.63;12.18;;;15.10;72.10;;;;;;4112798;28;20055;-66
2022/01/10 11:30:26;;;;;;;19.13;13.15;;;15.20;71.80;;;;;;4115867;28;20054;-66
2022/01/10 11:32:52;;;;;;;23.80;13.65;;;15.20;71.50;;;;;;4108161;28;20042;-65
2022/01/10 11:35:38;;;;;;;21.15;12.93;;;15.20;71.60;;;;;;4115283;28;20475;-64
2022/01/10 11:38:17;;;;;;;31.88;13.65;;;15.30;71.60;;;;;;4114282;28;20051;-64
2022/01/10 11:40:40;;;;;;;21.77;14.82;;;15.30;71.00;;;;;;4116907;28;20383;-64
2022/01/10 11:43:03;;;;;;;23.65;13.77;;;15.30;71.50;;;;;;4111836;28;20061;-65
2022/01/10 11:45:27;;;;;;;21.20;13.70;;;15.20;71.40;;;;;;4111357;28;20046;-63
2022/01/10 11:48:20;;;;;;;18.45;12.82;;;15.20;71.60;;;;;;4109597;28;20112;-64
2022/01/10 11:50:46;;;;;;;21.50;13.43;;;15.20;71.90;;;;;;4056980;29;20081;-64
2022/01/10 11:53:09;;;;;;;22.77;12.57;;;15.10;72.40;;;;;;4101911;28;20108;-64
2022/01/10 11:55:32;;;;;;;20.08;13.10;;;15.10;72.50;;;;;;4112633;28;20106;-64
2022/01/10 11:58:03;;;;;;;23.65;13.10;;;15.10;72.50;;;;;;4119927;28;20050;-61
2022/01/10 12:00:36;;;;;;;23.35;13.07;;;15.10;72.40;;;;;;4108708;28;20054;-62
2022/01/10 12:02:59;;;;;;;24.83;13.38;;;15.10;72.70;;;;;;4107860;28;20109;-62
2022/01/10 12:05:23;;;;;;;20.98;14.00;;;15.10;72.80;;;;;;4107441;28;20059;-63
2022/01/10 12:07:48;;;;;;;22.75;13.90;;;15.00;73.00;;;;;;4110581;28;20054;-61
2022/01/10 12:10:22;;;;;;;24.08;12.50;;;15.00;73.10;;;;;;4112842;28;20414;-62
2022/01/10 12:12:49;;;;;;;18.65;13.85;;;15.00;73.20;;;;;;4118273;28;20101;-62
2022/01/10 12:15:12;;;;;;;22.20;13.52;;;15.00;73.30;;;;;;4118404;28;20058;-62
2022/01/10 12:17:37;;;;;;;20.17;13.60;;;14.90;73.30;;;;;;4112611;28;20077;-62
2022/01/10 12:20:02;;;;;;;21.42;13.73;;;14.90;73.40;;;;;;4118269;28;21006;-62
2022/01/10 12:22:25;;;;;;;23.85;14.32;;;14.90;73.50;;;;;;4110689;28;20054;-62
2022/01/10 12:24:50;;;;;;;22.00;12.80;;;14.90;73.40;;;;;;4110777;28;20051;-62
2022/01/10 12:27:14;;;;;;;24.52;13.18;;;14.80;73.60;;;;;;4110597;28;20653;-62
2022/01/10 12:29:39;;;;;;;18.13;12.32;;;14.80;73.60;;;;;;4115507;28;20376;-61